createdAt,value
2023-02-13T00:00:46.628Z,0.87
2023-02-13T00:01:46.639Z,0.86
2023-02-13T00:02:46.696Z,0.86
2023-02-13T00:03:46.688Z,0.88
2023-02-13T00:04:46.694Z,0.90
2023-02-13T00:05:46.715Z,0.86
2023-02-13T00:06:46.761Z,0.87
2023-02-13T00:07:46.780Z,0.88
2023-02-13T00:08:46.795Z,0.87
2023-02-13T00:09:46.819Z,0.86
2023-02-13T00:10:46.859Z,0.85
2023-02-13T00:11:46.848Z,0.86
2023-02-13T00:12:46.835Z,0.87
2023-02-13T00:13:46.896Z,0.86
2023-02-13T00:14:46.919Z,0.87
2023-02-13T00:15:46.954Z,0.85
2023-02-13T00:16:46.952Z,0.86
2023-02-13T00:17:46.994Z,0.88
2023-02-13T00:18:46.976Z,0.86
2023-02-13T00:19:46.986Z,0.87
2023-02-13T00:20:47.041Z,0.86
2023-02-13T00:21:47.050Z,0.86
2023-02-13T00:22:47.072Z,0.86
2023-02-13T00:23:47.111Z,0.88
2023-02-13T00:24:47.171Z,0.87
2023-02-13T00:25:47.267Z,0.85
2023-02-13T00:26:47.311Z,0.86
2023-02-13T00:27:47.380Z,0.85
2023-02-13T00:28:47.435Z,0.85
2023-02-13T00:29:47.556Z,0.85
2023-02-13T00:30:47.680Z,0.85
2023-02-13T00:31:47.793Z,0.86
2023-02-13T00:32:47.752Z,0.85
2023-02-13T00:33:47.829Z,0.86
2023-02-13T00:34:47.881Z,0.87
2023-02-13T00:35:47.993Z,0.86
2023-02-13T00:36:48.080Z,0.85
2023-02-13T00:37:48.127Z,0.86
2023-02-13T00:38:48.180Z,0.84
2023-02-13T00:39:48.286Z,0.85
2023-02-13T00:40:48.350Z,0.85
2023-02-13T00:41:48.435Z,0.86
2023-02-13T00:42:48.513Z,0.85
2023-02-13T00:43:48.585Z,0.87
2023-02-13T00:44:48.665Z,0.85
2023-02-13T00:45:48.720Z,0.86
2023-02-13T00:46:48.811Z,0.87
2023-02-13T00:47:48.856Z,0.85
2023-02-13T00:48:48.953Z,0.87
2023-02-13T00:49:48.990Z,0.87
2023-02-13T00:50:49.033Z,0.87
2023-02-13T00:51:49.123Z,0.84
2023-02-13T00:52:49.202Z,0.86
2023-02-13T00:53:49.265Z,0.86
2023-02-13T00:54:49.330Z,0.85
2023-02-13T00:55:49.410Z,0.85
2023-02-13T00:56:49.447Z,0.87
2023-02-13T00:57:49.520Z,0.87
2023-02-13T00:58:49.586Z,0.87
2023-02-13T00:59:51.068Z,0.89
2023-02-13T01:00:49.728Z,0.88
2023-02-13T01:01:49.846Z,0.85
2023-02-13T01:02:49.849Z,0.89
2023-02-13T01:03:49.931Z,0.85
2023-02-13T01:04:49.961Z,0.87
2023-02-13T01:05:50.053Z,0.87
2023-02-13T01:06:50.113Z,0.86
2023-02-13T01:07:50.142Z,0.86
2023-02-13T01:08:50.227Z,0.87
2023-02-13T01:09:50.266Z,0.86
2023-02-13T01:10:50.349Z,0.88
2023-02-13T01:11:50.406Z,0.88
2023-02-13T01:12:50.462Z,0.87
2023-02-13T01:13:50.511Z,0.88
2023-02-13T01:14:50.577Z,0.87
2023-02-13T01:15:50.733Z,0.86
2023-02-13T01:16:50.679Z,0.88
2023-02-13T01:17:50.741Z,0.84
2023-02-13T01:18:50.789Z,0.88
2023-02-13T01:19:50.847Z,0.87
2023-02-13T01:20:50.877Z,0.88
2023-02-13T01:21:50.986Z,0.87
2023-02-13T01:22:50.994Z,0.86
2023-02-13T01:23:51.081Z,0.86
2023-02-13T01:24:51.072Z,0.88
2023-02-13T01:25:51.169Z,0.86
2023-02-13T01:26:51.277Z,0.87
2023-02-13T01:27:51.312Z,0.87
2023-02-13T01:28:51.344Z,0.86
2023-02-13T01:29:51.393Z,0.86
2023-02-13T01:30:51.470Z,0.87
2023-02-13T01:31:51.633Z,0.87
2023-02-13T01:32:51.519Z,0.88
2023-02-13T01:33:51.552Z,0.86
2023-02-13T01:34:51.657Z,0.85
2023-02-13T01:35:51.679Z,0.85
2023-02-13T01:36:51.718Z,0.85
2023-02-13T01:37:51.786Z,0.86
2023-02-13T01:38:51.790Z,0.85
2023-02-13T01:39:51.876Z,0.87
2023-02-13T01:40:51.932Z,0.87
2023-02-13T01:41:51.955Z,0.85
2023-02-13T01:42:52.036Z,0.86
2023-02-13T01:43:52.049Z,0.87
2023-02-13T01:44:52.108Z,0.86
2023-02-13T01:45:52.116Z,0.85
2023-02-13T01:46:52.180Z,0.86
2023-02-13T01:47:52.189Z,0.86
2023-02-13T03:46:56.086Z,0.78
2023-02-13T03:47:56.146Z,0.79
2023-02-13T03:48:56.173Z,0.79
2023-02-13T03:49:56.195Z,0.79
2023-02-13T03:50:56.522Z,0.78
2023-02-13T03:51:56.360Z,0.78
2023-02-13T03:52:56.413Z,0.76
2023-02-13T03:53:56.486Z,0.79
2023-02-13T03:54:56.516Z,0.78
2023-02-13T03:55:56.588Z,0.78
2023-02-13T03:56:57.005Z,0.79
2023-02-13T03:57:56.701Z,0.79
2023-02-13T03:58:56.783Z,0.79
2023-02-13T03:59:56.836Z,0.78
2023-02-13T04:00:57.270Z,0.77
2023-02-13T04:01:56.957Z,0.79
2023-02-13T04:02:57.015Z,0.77
2023-02-13T04:03:57.099Z,0.78
2023-02-13T04:04:57.131Z,0.79
2023-02-13T04:05:57.199Z,0.77
2023-02-13T04:06:57.287Z,0.78
2023-02-13T04:07:57.319Z,0.78
2023-02-13T04:08:57.354Z,0.78
2023-02-13T04:09:57.451Z,0.77
2023-02-13T04:10:57.813Z,0.77
2023-02-13T04:11:57.540Z,0.76
2023-02-13T04:12:57.622Z,0.78
2023-02-13T04:13:57.692Z,0.79
2023-02-13T04:14:57.750Z,0.76
2023-02-13T04:15:57.815Z,0.77
2023-02-13T04:16:57.983Z,0.77
2023-02-13T04:17:57.967Z,0.77
2023-02-13T04:18:58.038Z,0.78
2023-02-13T04:19:58.042Z,0.76
2023-02-13T04:20:58.359Z,0.77
2023-02-13T04:21:58.202Z,0.76
2023-02-13T04:22:58.259Z,0.76
2023-02-13T04:23:58.317Z,0.76
2023-02-13T04:24:58.425Z,0.77
2023-02-13T04:25:58.478Z,0.77
2023-02-13T04:26:58.546Z,0.76
2023-02-13T04:27:58.570Z,0.76
2023-02-13T04:28:58.622Z,0.75
2023-02-13T04:29:58.699Z,0.76
2023-02-13T04:30:59.171Z,0.75
2023-02-13T04:31:58.861Z,0.74
2023-02-13T04:32:58.876Z,0.76
2023-02-13T06:01:09.762Z,0.73
2023-02-13T06:17:02.963Z,0.71
2023-02-13T06:18:02.985Z,0.71
2023-02-13T06:19:02.971Z,0.71
2023-02-13T06:20:02.992Z,0.71
2023-02-13T06:21:02.969Z,0.70
2023-02-13T06:22:03.009Z,0.72
2023-02-13T06:23:03.019Z,0.72
2023-02-13T06:24:03.025Z,0.71
2023-02-13T06:29:04.203Z,0.70
2023-02-13T06:30:03.256Z,0.72
2023-02-13T06:31:03.349Z,0.70
2023-02-13T06:32:03.368Z,0.71
2023-02-13T06:33:03.298Z,0.71
2023-02-13T08:08:06.101Z,0.74
2023-02-13T08:09:06.127Z,0.74
2023-02-13T08:10:06.183Z,0.74
2023-02-13T08:11:06.270Z,0.73
2023-02-13T08:12:06.330Z,0.75
2023-02-13T08:13:06.334Z,0.74
2023-02-13T08:14:06.368Z,0.74
2023-02-13T08:15:06.494Z,0.74
2023-02-13T08:16:06.471Z,0.74
2023-02-13T08:17:06.512Z,0.72
2023-02-13T08:18:06.545Z,0.74
2023-02-13T08:19:06.540Z,0.74
2023-02-13T08:20:06.554Z,0.74
2023-02-13T08:21:06.605Z,0.73
2023-02-13T08:22:06.712Z,0.72
2023-02-13T08:23:06.793Z,0.73
2023-02-13T08:24:06.736Z,0.73
2023-02-13T08:25:06.805Z,0.73
2023-02-13T08:26:06.911Z,0.73
2023-02-13T08:27:06.880Z,0.73
2023-02-13T08:28:07.003Z,0.71
2023-02-13T08:29:06.995Z,0.72
2023-02-13T08:30:07.065Z,0.72
2023-02-13T08:31:07.119Z,0.73
2023-02-13T08:32:07.223Z,0.73
2023-02-13T08:33:07.210Z,0.73
2023-02-13T08:34:07.225Z,0.71
2023-02-13T08:35:08.129Z,0.72
2023-02-13T08:36:07.445Z,0.72
2023-02-13T08:37:07.398Z,0.72
2023-02-13T08:38:07.461Z,0.72
2023-02-13T08:39:07.478Z,0.72
2023-02-13T08:40:07.529Z,0.72
2023-02-13T08:41:07.562Z,0.70
2023-02-13T08:42:07.603Z,0.71
2023-02-13T08:43:07.669Z,0.72
2023-02-13T08:44:07.830Z,0.71
2023-02-13T08:45:07.715Z,0.70
2023-02-13T08:46:07.842Z,0.72
2023-02-13T08:47:07.807Z,0.71
2023-02-13T08:48:07.930Z,0.73
2023-02-13T08:49:07.889Z,0.72
2023-02-13T08:50:07.937Z,0.72
2023-02-13T08:51:07.983Z,0.72
2023-02-13T08:52:08.049Z,0.70
2023-02-13T08:53:08.095Z,0.72
2023-02-13T08:54:08.122Z,0.72
2023-02-13T08:55:08.162Z,0.72
2023-02-13T08:56:08.194Z,0.70
2023-02-13T08:57:08.270Z,0.72
2023-02-13T08:58:08.305Z,0.70
2023-02-13T08:59:08.365Z,0.72
2023-02-13T09:00:08.402Z,0.70
2023-02-13T09:01:08.501Z,0.71
2023-02-13T09:02:08.767Z,0.72
2023-02-13T09:03:10.327Z,0.72
2023-02-13T09:04:08.650Z,0.72
2023-02-13T09:05:08.702Z,0.71
2023-02-13T09:06:08.766Z,0.70
2023-02-13T09:07:08.766Z,0.71
2023-02-13T09:08:08.799Z,0.70
2023-02-13T09:09:08.817Z,0.71
2023-02-13T09:10:08.932Z,0.70
2023-02-13T09:11:08.940Z,0.70
2023-02-13T09:12:09.002Z,0.72
2023-02-13T09:13:09.044Z,0.70
2023-02-13T09:14:09.053Z,0.70
2023-02-13T09:15:09.117Z,0.70
2023-02-13T09:17:09.258Z,0.71
2023-02-13T09:18:09.249Z,0.70
2023-02-13T09:19:09.308Z,0.70
2023-02-13T09:20:09.361Z,0.69
2023-02-13T09:21:09.405Z,0.70
2023-02-13T09:22:09.488Z,0.69
2023-02-13T09:23:09.530Z,0.70
2023-02-13T09:24:09.520Z,0.70
2023-02-13T09:25:09.599Z,0.69
2023-02-13T09:26:09.625Z,0.70
2023-02-13T09:27:09.686Z,0.70
2023-02-13T09:28:09.877Z,0.69
2023-02-13T09:29:09.799Z,0.69
2023-02-13T09:30:09.889Z,0.69
2023-02-13T09:31:10.113Z,0.69
2023-02-13T09:32:10.105Z,0.70
2023-02-13T09:33:10.071Z,0.70
2023-02-13T09:34:10.123Z,0.68
2023-02-13T09:35:10.200Z,0.68
2023-02-13T09:36:10.242Z,0.68
2023-02-13T09:37:10.382Z,0.69
2023-02-13T09:38:10.338Z,0.69
2023-02-13T09:39:10.415Z,0.69
2023-02-13T09:40:10.474Z,0.70
2023-02-13T09:41:10.529Z,0.69
2023-02-13T09:42:10.650Z,0.69
2023-02-13T09:43:10.767Z,0.69
2023-02-13T09:44:10.730Z,0.68
2023-02-13T09:45:10.771Z,0.68
2023-02-13T09:46:10.883Z,0.68
2023-02-13T09:47:10.920Z,0.68
2023-02-13T09:48:10.926Z,0.67
2023-02-13T09:49:11.014Z,0.67
2023-02-13T09:50:11.060Z,0.68
2023-02-13T09:51:11.121Z,0.67
2023-02-13T09:52:11.235Z,0.67
2023-02-13T09:53:11.232Z,0.67
2023-02-13T09:54:11.288Z,0.67
2023-02-13T09:55:11.373Z,0.68
2023-02-13T09:56:11.455Z,0.67
2023-02-13T09:57:11.512Z,0.66
2023-02-13T09:58:11.528Z,0.67
2023-02-13T09:59:11.500Z,0.68
2023-02-13T10:00:11.539Z,0.66
2023-02-13T10:01:11.674Z,0.66
2023-02-13T10:02:11.706Z,0.68
2023-02-13T10:03:11.716Z,0.67
2023-02-13T10:04:11.757Z,0.66
2023-02-13T10:05:11.868Z,0.66
2023-02-13T10:06:11.848Z,0.67
2023-02-13T10:07:11.890Z,0.67
2023-02-13T10:08:11.947Z,0.66
2023-02-13T10:09:12.004Z,0.66
2023-02-13T10:10:12.062Z,0.67
2023-02-13T10:11:12.121Z,0.67
2023-02-13T10:12:12.200Z,0.67
2023-02-13T10:13:12.230Z,0.66
2023-02-13T10:14:12.283Z,0.67
2023-02-13T10:15:12.319Z,0.66
2023-02-13T10:16:12.487Z,0.66
2023-02-13T10:17:12.416Z,0.67
2023-02-13T10:18:12.415Z,0.66
2023-02-13T10:19:12.425Z,0.67
2023-02-13T10:20:12.488Z,0.64
2023-02-13T10:21:12.536Z,0.64
2023-02-13T10:22:12.578Z,0.66
2023-02-13T10:23:12.607Z,0.65
2023-02-13T10:24:12.662Z,0.64
2023-02-13T10:25:12.697Z,0.66
2023-02-13T10:26:12.777Z,0.64
2023-02-13T10:27:12.855Z,0.66
2023-02-13T10:28:12.876Z,0.66
2023-02-13T10:29:12.902Z,0.63
2023-02-13T10:30:13.012Z,0.64
2023-02-13T10:31:13.029Z,0.65
2023-02-13T10:32:13.175Z,0.65
2023-02-13T10:33:13.082Z,0.65
2023-02-13T10:34:13.057Z,0.65
2023-02-13T10:35:13.091Z,0.65
2023-02-13T10:36:13.109Z,0.65
2023-02-13T10:37:13.103Z,0.63
2023-02-13T10:38:13.178Z,0.64
2023-02-13T10:39:13.173Z,0.65
2023-02-13T10:40:13.227Z,0.65
2023-02-13T10:41:13.252Z,0.64
2023-02-13T10:42:13.300Z,0.64
2023-02-13T10:43:13.306Z,0.65
2023-02-13T10:44:13.387Z,0.64
2023-02-13T10:45:13.438Z,0.64
2023-02-13T10:46:13.500Z,0.65
2023-02-13T10:47:13.538Z,0.65
2023-02-13T10:48:13.545Z,0.64
2023-02-13T10:49:13.614Z,0.64
2023-02-13T10:50:13.669Z,0.62
2023-02-13T10:51:13.713Z,0.63
2023-02-13T10:52:13.755Z,0.62
2023-02-13T10:53:13.801Z,0.62
2023-02-13T10:54:13.862Z,0.63
2023-02-13T10:55:14.694Z,0.64
2023-02-13T10:56:13.998Z,0.63
2023-02-13T10:57:14.003Z,0.63
2023-02-13T10:58:14.066Z,0.62
2023-02-13T10:59:14.132Z,0.64
2023-02-13T11:00:14.170Z,0.62
2023-02-13T11:01:14.277Z,0.62
2023-02-13T11:02:14.362Z,0.63
2023-02-13T11:03:14.407Z,0.62
2023-02-13T11:04:14.480Z,0.63
2023-02-13T11:05:14.480Z,0.63
2023-02-13T11:06:14.548Z,0.63
2023-02-13T11:07:14.561Z,0.62
2023-02-13T11:08:14.666Z,0.62
2023-02-13T11:09:14.659Z,0.62
2023-02-13T11:10:14.686Z,0.62
2023-02-13T11:11:14.747Z,0.61
2023-02-13T11:33:16.099Z,0.60
2023-02-13T11:34:16.128Z,0.60
2023-02-13T11:35:16.209Z,0.61
2023-02-13T11:36:16.284Z,0.60
2023-02-13T11:37:16.361Z,0.62
2023-02-13T11:38:16.380Z,0.61
2023-02-13T11:39:16.422Z,0.60
2023-02-13T11:40:16.516Z,0.60
2023-02-13T11:41:16.527Z,0.61
2023-02-13T11:42:16.573Z,0.61
2023-02-13T11:43:16.611Z,0.61
2023-02-13T11:44:16.694Z,0.60
2023-02-13T11:45:16.734Z,0.61
2023-02-13T11:46:17.356Z,0.60
2023-02-13T11:47:16.851Z,0.61
2023-02-13T11:48:16.916Z,0.60
2023-02-13T11:49:16.958Z,0.60
2023-02-13T11:50:17.050Z,0.60
2023-02-13T11:51:17.086Z,0.60
2023-02-13T11:52:17.204Z,0.59
2023-02-13T11:53:17.159Z,0.59
2023-02-13T11:54:17.219Z,0.59
2023-02-13T11:55:17.296Z,0.59
2023-02-13T11:56:17.334Z,0.60
2023-02-13T11:57:17.407Z,0.59
2023-02-13T11:58:17.431Z,0.58
2023-02-13T11:59:17.475Z,0.61
2023-02-13T12:00:17.575Z,0.59
2023-02-13T12:01:17.595Z,0.60
2023-02-13T12:02:17.695Z,0.59
2023-02-13T12:03:17.862Z,0.59
2023-02-13T12:04:17.828Z,0.59
2023-02-13T12:05:17.826Z,0.58
2023-02-13T12:06:17.811Z,0.60
2023-02-13T12:07:17.867Z,0.58
2023-02-13T12:08:17.892Z,0.58
2023-02-13T12:09:17.955Z,0.57
2023-02-13T12:10:18.001Z,0.58
2023-02-13T12:11:18.013Z,0.59
2023-02-13T12:12:18.160Z,0.59
2023-02-13T12:13:18.158Z,0.58
2023-02-13T12:14:18.182Z,0.59
2023-02-13T12:15:18.245Z,0.59
2023-02-13T12:16:18.326Z,0.59
2023-02-13T12:17:30.853Z,0.58
2023-02-13T12:18:19.342Z,0.58
2023-02-13T12:19:18.310Z,0.58
2023-02-13T12:20:18.344Z,0.58
2023-02-13T12:21:18.390Z,0.59
2023-02-13T12:22:18.397Z,0.59
2023-02-13T12:23:18.415Z,0.58
2023-02-13T12:24:18.377Z,0.58
2023-02-13T12:25:18.421Z,0.58
2023-02-13T12:26:18.372Z,0.58
2023-02-13T12:27:18.427Z,0.58
2023-02-13T12:28:18.561Z,0.57
2023-02-13T12:29:18.497Z,0.59
2023-02-13T12:30:18.543Z,0.58
2023-02-13T12:31:18.608Z,0.58
2023-02-13T12:32:18.622Z,0.59
2023-02-13T12:33:18.676Z,0.58
2023-02-13T12:34:18.722Z,0.57
2023-02-13T12:35:18.817Z,0.58
2023-02-13T12:36:18.849Z,0.58
2023-02-13T12:37:18.942Z,0.58
2023-02-13T12:38:19.002Z,0.58
2023-02-13T12:39:19.076Z,0.57
2023-02-13T12:40:19.071Z,0.58
2023-02-13T12:41:19.145Z,0.57
2023-02-13T12:42:19.201Z,0.57
2023-02-13T12:43:19.212Z,0.58
2023-02-13T12:44:19.269Z,0.58
2023-02-13T12:45:19.367Z,0.58
2023-02-13T12:46:19.388Z,0.57
2023-02-13T12:47:19.419Z,0.58
2023-02-13T12:48:19.521Z,0.56
2023-02-13T12:49:19.519Z,0.56
2023-02-13T12:50:19.623Z,0.57
2023-02-13T12:51:19.616Z,0.57
2023-02-13T12:52:19.651Z,0.56
2023-02-13T12:53:19.668Z,0.57
2023-02-13T12:54:19.739Z,0.55
2023-02-13T12:55:19.709Z,0.55
2023-02-13T12:56:19.763Z,0.56
2023-02-13T12:57:19.733Z,0.55
2023-02-13T13:00:19.743Z,0.55
2023-02-13T13:01:19.847Z,0.56
2023-02-13T13:02:19.910Z,0.56
2023-02-13T13:03:19.802Z,0.56
2023-02-13T13:04:19.823Z,0.55
2023-02-13T13:05:19.825Z,0.54
2023-02-13T13:06:19.845Z,0.55
2023-02-13T13:07:19.869Z,0.56
2023-02-13T13:08:19.935Z,0.55
2023-02-13T13:09:19.883Z,0.55
2023-02-13T13:10:19.921Z,0.55
2023-02-13T13:11:19.917Z,0.54
2023-02-13T13:12:20.035Z,0.54
2023-02-13T13:13:20.019Z,0.54
2023-02-13T13:14:20.026Z,0.54
2023-02-13T13:15:20.077Z,0.54
2023-02-13T13:16:20.219Z,0.54
2023-02-13T13:17:20.132Z,0.54
2023-02-13T13:18:20.216Z,0.54
2023-02-13T13:19:20.232Z,0.53
2023-02-13T13:20:20.293Z,0.53
2023-02-13T13:21:20.245Z,0.52
2023-02-13T13:22:20.368Z,0.54
2023-02-13T13:33:20.719Z,0.54
2023-02-13T13:34:20.726Z,0.54
2023-02-13T13:35:20.754Z,0.54
2023-02-13T13:36:20.788Z,0.53
2023-02-13T13:37:20.803Z,0.54
2023-02-13T13:38:20.851Z,0.54
2023-02-13T13:39:20.929Z,0.54
2023-02-13T13:40:20.982Z,0.55
2023-02-13T13:41:20.970Z,0.54
2023-02-13T13:42:20.998Z,0.55
2023-02-13T13:44:21.047Z,0.54
2023-02-13T13:45:21.062Z,0.55
2023-02-13T13:46:21.111Z,0.55
2023-02-13T13:47:21.118Z,0.54
2023-02-13T13:48:21.125Z,0.53
2023-02-13T13:49:21.135Z,0.54
2023-02-13T13:50:21.197Z,0.55
2023-02-13T13:51:21.215Z,0.54
2023-02-13T13:52:21.260Z,0.55
2023-02-13T13:53:21.232Z,0.54
2023-02-13T13:54:21.249Z,0.54
2023-02-13T13:55:21.328Z,0.53
2023-02-13T13:56:21.363Z,0.54
2023-02-13T13:57:21.397Z,0.54
2023-02-13T13:58:21.421Z,0.55
2023-02-13T13:59:21.449Z,0.55
2023-02-13T14:24:22.083Z,0.53
2023-02-13T14:25:22.099Z,0.54
2023-02-13T14:26:22.088Z,0.52
2023-02-13T14:27:22.103Z,0.53
2023-02-13T14:28:22.162Z,0.52
2023-02-13T14:29:22.145Z,0.53
2023-02-13T14:30:22.209Z,0.54
2023-02-13T14:31:22.376Z,0.55
2023-02-13T14:32:22.235Z,0.55
2023-02-13T14:33:22.284Z,0.55
2023-02-13T14:34:22.305Z,0.55
2023-02-13T14:35:22.380Z,0.55
2023-02-13T14:36:22.358Z,0.55
2023-02-13T14:37:22.370Z,0.54
2023-02-13T14:38:22.428Z,0.54
2023-02-13T14:40:22.433Z,0.54
2023-02-13T15:06:23.134Z,0.52
2023-02-13T15:07:23.819Z,0.52
2023-02-13T15:08:23.186Z,0.52
2023-02-13T15:09:23.214Z,0.52
2023-02-13T15:10:23.225Z,0.52
2023-02-13T15:11:23.285Z,0.51
2023-02-13T15:12:23.313Z,0.53
2023-02-13T15:13:23.350Z,0.51
2023-02-13T15:14:23.403Z,0.52
2023-02-13T15:15:23.397Z,0.54
2023-02-13T15:16:23.474Z,0.51
2023-02-13T15:17:23.484Z,0.51
2023-02-13T15:18:23.491Z,0.51
2023-02-13T15:19:23.555Z,0.52
2023-02-13T15:20:23.533Z,0.52
2023-02-13T15:21:23.618Z,0.58
2023-02-13T15:22:23.619Z,0.58
2023-02-13T15:29:35.264Z,0.55
2023-02-13T15:30:24.856Z,0.55
2023-02-13T15:31:24.031Z,0.54
2023-02-13T15:32:23.864Z,0.53
2023-02-13T15:33:23.938Z,0.54
2023-02-13T15:34:23.916Z,0.54
2023-02-13T15:35:23.923Z,0.51
2023-02-13T15:36:23.901Z,0.51
2023-02-13T15:37:23.928Z,0.54
2023-02-13T15:38:23.970Z,0.55
2023-02-13T15:39:23.979Z,0.58
2023-02-13T15:40:23.966Z,0.55
2023-02-13T15:41:23.990Z,0.52
2023-02-13T15:42:24.009Z,0.56
2023-02-13T15:43:24.064Z,0.52
2023-02-13T15:44:24.068Z,0.57
2023-02-13T15:45:24.042Z,0.58
2023-02-13T15:46:24.127Z,0.58
2023-02-13T15:47:24.054Z,0.55
2023-02-13T15:48:24.119Z,0.61
2023-02-13T15:49:24.092Z,0.61
2023-02-13T15:50:24.123Z,0.59
2023-02-13T15:51:24.150Z,0.58
2023-02-13T15:52:24.139Z,0.57
2023-02-13T15:53:24.249Z,0.60
2023-02-13T15:54:24.202Z,0.61
2023-02-13T15:55:24.218Z,0.58
2023-02-13T15:56:24.233Z,0.59
2023-02-13T15:57:24.383Z,0.59
2023-02-13T15:58:24.277Z,0.60
2023-02-13T15:59:24.312Z,0.56
2023-02-13T16:00:24.373Z,0.56
2023-02-13T16:01:24.440Z,0.57
2023-02-13T16:02:24.453Z,0.58
2023-02-13T16:03:24.853Z,0.60
2023-02-13T16:04:24.485Z,0.62
2023-02-13T16:05:39.028Z,0.59
2023-02-13T16:06:25.500Z,0.58
2023-02-13T16:07:24.498Z,0.55
2023-02-13T16:08:24.548Z,0.55
2023-02-13T16:09:24.549Z,0.55
2023-02-13T16:10:24.550Z,0.54
2023-02-13T16:11:24.597Z,0.56
2023-02-13T16:12:24.567Z,0.55
2023-02-13T16:13:24.694Z,0.56
2023-02-13T16:14:24.622Z,0.57
2023-02-13T16:15:24.658Z,0.58
2023-02-13T16:16:24.716Z,0.60
2023-02-13T16:17:24.680Z,0.58
2023-02-13T16:18:24.673Z,0.58
2023-02-13T16:19:24.723Z,0.58
2023-02-13T16:20:24.741Z,0.59
2023-02-13T16:21:24.742Z,0.58
2023-02-13T16:22:24.810Z,0.57
2023-02-13T16:23:24.888Z,0.58
2023-02-13T16:24:24.779Z,0.59
2023-02-13T16:25:24.891Z,0.60
2023-02-13T16:26:24.852Z,0.59
2023-02-13T16:27:25.843Z,0.57
2023-02-13T16:28:24.878Z,0.59
2023-02-13T16:29:24.889Z,0.59
2023-02-13T16:30:24.988Z,0.59
2023-02-13T16:31:24.991Z,0.57
2023-02-13T16:32:24.957Z,0.58
2023-02-13T16:33:25.015Z,0.58
2023-02-13T16:34:24.945Z,0.58
2023-02-13T16:35:25.017Z,0.59
2023-02-13T16:36:25.008Z,0.61
2023-02-13T16:37:25.048Z,0.61
2023-02-13T16:38:25.098Z,0.60
2023-02-13T16:39:25.128Z,0.60
2023-02-13T16:40:25.139Z,0.61
2023-02-13T16:42:25.233Z,0.60
2023-02-13T16:43:25.297Z,0.63
2023-02-13T16:44:25.304Z,0.62
2023-02-13T16:45:25.390Z,0.62
2023-02-13T16:46:25.436Z,0.60
2023-02-13T16:47:25.441Z,0.61
2023-02-13T16:48:25.494Z,0.60
2023-02-13T16:49:25.522Z,0.61
2023-02-13T16:50:25.558Z,0.61
2023-02-13T16:51:25.620Z,0.62
2023-02-13T16:52:25.665Z,0.63
2023-02-13T16:53:25.887Z,0.63
2023-02-13T16:54:25.740Z,0.62
2023-02-13T16:55:25.751Z,0.60
2023-02-13T16:56:25.842Z,0.60
2023-02-13T16:57:25.867Z,0.60
2023-02-13T16:58:25.929Z,0.60
2023-02-13T16:59:25.936Z,0.60
2023-02-13T17:00:25.922Z,0.60
2023-02-13T17:01:26.023Z,0.58
2023-02-13T17:03:26.061Z,0.58
2023-02-13T17:04:26.138Z,0.58
2023-02-13T17:05:26.147Z,0.57
2023-02-13T17:06:26.164Z,0.58
2023-02-13T17:07:26.233Z,0.56
2023-02-13T17:08:26.253Z,0.56
2023-02-13T17:09:26.291Z,0.57
2023-02-13T17:10:26.331Z,0.56
2023-02-13T17:11:26.377Z,0.57
2023-02-13T17:12:26.417Z,0.56
2023-02-13T17:13:26.483Z,0.55
2023-02-13T17:14:26.544Z,0.57
2023-02-13T17:15:26.570Z,0.57
2023-02-13T17:16:26.610Z,0.58
2023-02-13T17:17:26.658Z,0.57
2023-02-13T17:18:26.731Z,0.59
2023-02-13T17:19:26.743Z,0.58
2023-02-13T17:20:26.788Z,0.58
2023-02-13T17:21:26.819Z,0.58
2023-02-13T17:22:26.861Z,0.59
2023-02-13T17:23:26.901Z,0.57
2023-02-13T17:24:26.941Z,0.58
2023-02-13T17:25:26.995Z,0.58
2023-02-13T17:26:27.042Z,0.59
2023-02-13T17:27:27.072Z,0.59
2023-02-13T17:28:27.120Z,0.57
2023-02-13T17:29:27.175Z,0.56
2023-02-13T17:30:27.337Z,0.56
2023-02-13T17:31:27.308Z,0.56
2023-02-13T17:32:27.326Z,0.56
2023-02-13T17:33:27.374Z,0.56
2023-02-13T17:34:27.406Z,0.55
2023-02-13T17:35:27.463Z,0.55
2023-02-13T17:36:27.566Z,0.54
2023-02-13T17:37:27.544Z,0.54
2023-02-13T17:38:27.590Z,0.53
2023-02-13T17:39:27.679Z,0.54
2023-02-13T17:40:27.693Z,0.54
2023-02-13T17:41:27.782Z,0.55
2023-02-13T17:42:27.834Z,0.55
2023-02-13T17:43:27.853Z,0.54
2023-02-13T17:44:27.926Z,0.55
2023-02-13T17:45:27.934Z,0.55
2023-02-13T17:46:28.034Z,0.55
2023-02-13T17:47:28.031Z,0.54
2023-02-13T17:48:28.079Z,0.54
2023-02-13T17:49:28.163Z,0.53
2023-02-13T17:50:28.240Z,0.54
2023-02-13T17:51:28.232Z,0.52
2023-02-13T17:52:28.302Z,0.52
2023-02-13T17:53:28.356Z,0.53
2023-02-13T17:54:28.417Z,0.53
2023-02-13T17:55:28.472Z,0.53
2023-02-13T17:56:28.556Z,0.53
2023-02-13T17:57:28.580Z,0.54
2023-02-13T17:58:28.630Z,0.53
2023-02-13T17:59:28.673Z,0.54
2023-02-13T18:00:28.745Z,0.54
2023-02-13T18:01:28.862Z,0.54
2023-02-13T18:02:28.826Z,0.54
2023-02-13T18:03:28.905Z,0.54
2023-02-13T18:04:28.996Z,0.55
2023-02-13T18:05:28.971Z,0.55
2023-02-13T18:06:29.063Z,0.55
2023-02-13T18:07:29.113Z,0.55
2023-02-13T18:08:29.208Z,0.57
2023-02-13T18:09:29.255Z,0.56
2023-02-13T18:10:29.324Z,0.57
2023-02-13T18:11:29.385Z,0.58
2023-02-13T18:12:29.410Z,0.57
2023-02-13T18:13:29.494Z,0.58
2023-02-13T18:14:29.565Z,0.57
2023-02-13T18:15:30.741Z,0.57
2023-02-13T18:16:29.686Z,0.57
2023-02-13T18:17:29.776Z,0.57
2023-02-13T18:18:29.805Z,0.57
2023-02-13T18:19:29.877Z,0.56
2023-02-13T18:20:29.947Z,0.56
2023-02-13T18:21:30.016Z,0.55
2023-02-13T18:22:30.961Z,0.55
2023-02-13T18:23:30.125Z,0.56
2023-02-13T18:24:30.150Z,0.55
2023-02-13T18:25:30.227Z,0.55
2023-02-13T18:26:30.299Z,0.56
2023-02-13T18:27:30.331Z,0.56
2023-02-13T18:28:30.403Z,0.55
2023-02-13T18:29:30.520Z,0.56
2023-02-13T18:30:30.613Z,0.56
2023-02-13T18:31:30.702Z,0.57
2023-02-13T18:32:30.647Z,0.57
2023-02-13T18:33:30.733Z,0.57
2023-02-13T18:34:30.754Z,0.58
2023-02-13T18:35:30.802Z,0.58
2023-02-13T18:36:30.871Z,0.59
2023-02-13T18:37:30.920Z,0.60
2023-02-13T18:38:30.992Z,0.59
2023-02-13T18:39:32.450Z,0.58
2023-02-13T18:40:31.102Z,0.57
2023-02-13T18:41:31.137Z,0.59
2023-02-13T18:42:31.226Z,0.60
2023-02-13T18:43:31.293Z,0.60
2023-02-13T18:44:31.342Z,0.59
2023-02-13T18:45:31.417Z,0.59
2023-02-13T18:46:31.448Z,0.60
2023-02-13T18:47:31.455Z,0.60
2023-02-13T18:48:31.575Z,0.59
2023-02-13T18:49:31.663Z,0.60
2023-02-13T18:50:31.650Z,0.59
2023-02-13T18:51:31.711Z,0.59
2023-02-13T18:52:31.822Z,0.60
2023-02-13T18:53:31.836Z,0.61
2023-02-13T18:54:31.867Z,0.60
2023-02-13T18:55:31.963Z,0.59
2023-02-13T18:56:31.997Z,0.60
2023-02-13T19:02:32.981Z,0.60
2023-02-13T19:03:32.430Z,0.60
2023-02-13T19:04:32.459Z,0.59
2023-02-13T19:05:32.534Z,0.60
2023-02-13T19:06:32.602Z,0.60
2023-02-13T19:07:32.751Z,0.60
2023-02-13T19:08:32.693Z,0.61
2023-02-13T19:09:32.806Z,0.60
2023-02-13T19:10:32.816Z,0.58
2023-02-13T19:11:32.905Z,0.60
2023-02-13T19:12:32.984Z,0.61
2023-02-13T19:13:33.096Z,0.59
2023-02-13T19:14:33.078Z,0.60
2023-02-13T19:15:33.160Z,0.60
2023-02-13T19:51:35.354Z,0.65
2023-02-13T20:03:36.118Z,0.64
2023-02-13T20:04:36.156Z,0.66
2023-02-13T20:05:36.190Z,0.64
2023-02-13T20:06:36.265Z,0.65
2023-02-13T20:07:36.303Z,0.66
2023-02-13T20:08:36.383Z,0.65
2023-02-13T20:09:36.509Z,0.65
2023-02-13T20:10:36.516Z,0.66
2023-02-13T20:11:36.586Z,0.66
2023-02-13T20:12:36.655Z,0.66
2023-02-13T20:13:36.688Z,0.65
2023-02-13T20:14:36.775Z,0.66
2023-02-13T20:15:36.797Z,0.65
2023-02-13T20:16:36.908Z,0.65
2023-02-13T20:17:36.935Z,0.66
2023-02-13T20:18:37.019Z,0.66
2023-02-13T20:19:37.069Z,0.66
2023-02-13T20:20:37.092Z,0.66
2023-02-13T20:21:37.162Z,0.65
2023-02-13T20:22:37.246Z,0.65
2023-02-13T20:23:37.305Z,0.66
2023-02-13T20:24:37.353Z,0.66
2023-02-13T20:25:37.465Z,0.65
2023-02-13T20:26:37.485Z,0.65
2023-02-13T20:28:37.576Z,0.66
2023-02-13T20:29:38.509Z,0.66
2023-02-13T20:30:37.876Z,0.66
2023-02-13T20:31:37.814Z,0.65
2023-02-13T20:32:37.831Z,0.66
2023-02-13T20:33:37.893Z,0.65
2023-02-13T20:34:58.337Z,0.65
2023-02-13T20:35:38.955Z,0.65
2023-02-13T20:36:37.975Z,0.65
2023-02-13T20:37:37.970Z,0.65
2023-02-13T20:38:38.017Z,0.64
2023-02-13T20:39:38.029Z,0.64
2023-02-13T20:40:38.027Z,0.65
2023-02-13T20:41:38.161Z,0.64
2023-02-13T20:42:38.103Z,0.64
2023-02-13T20:43:38.084Z,0.63
2023-02-13T20:44:38.139Z,0.66
2023-02-13T20:45:38.161Z,0.65
2023-02-13T20:46:38.140Z,0.65
2023-02-13T20:47:38.162Z,0.67
2023-02-13T21:06:39.343Z,0.66
2023-02-13T21:07:39.414Z,0.66
2023-02-13T21:08:39.490Z,0.66
2023-02-13T21:09:39.540Z,0.66
2023-02-13T21:10:39.611Z,0.66
2023-02-13T21:11:39.666Z,0.66
2023-02-13T21:12:39.730Z,0.66
2023-02-13T21:13:39.774Z,0.66
2023-02-13T21:14:39.839Z,0.67
2023-02-13T21:15:39.908Z,0.66
2023-02-13T21:16:40.069Z,0.66
2023-02-13T21:17:40.037Z,0.66
2023-02-13T21:18:40.096Z,0.67
2023-02-13T21:19:40.169Z,0.66
2023-02-13T21:20:40.243Z,0.66